Terminal Aerodrome Forecast
Issued by NWS

Home | Current Version | Previous Version | Text Only | Print | Product List | Glossary On
Versions: 1 2 3 4 5 6 7 8 9 10 11 12 13 14 15 16
000
FTUS42 KTAE 051315 AAA
TAFABY
TAF AMD
KABY 051315Z 0513/0612 35004KT 1/2SM FG VV002
      TEMPO 0513/0515 1/4SM FG
     FM051500 04005KT 2SM BR OVC005
     FM051700 05005KT 5SM BR BKN008
     FM052000 08005KT 4SM -SHRA BR BKN007
     FM052300 09005KT 2SM TSRA BR OVC005CB=

USA.gov is the U.S. government's official web portal to all federal, state and local government web resources and services.